sensor_id;sensor_type;location;lat;lon;timestamp;pressure;altitude;pressure_sealevel;temperature;humidity
63554;BME280;49699;48.072;7.800;2023-02-13T00:00:01;101323.31;;;-0.81;86.88
63554;BME280;49699;48.072;7.800;2023-02-13T00:02:26;101327.53;;;-0.83;86.85
63554;BME280;49699;48.072;7.800;2023-02-13T00:04:51;101325.84;;;-0.82;86.92
63554;BME280;49699;48.072;7.800;2023-02-13T00:07:17;101324.94;;;-0.84;86.84
63554;BME280;49699;48.072;7.800;2023-02-13T00:09:42;101331.72;;;-0.86;87.10
63554;BME280;49699;48.072;7.800;2023-02-13T00:12:07;101322.28;;;-0.89;86.76
63554;BME280;49699;48.072;7.800;2023-02-13T00:14:33;101328.28;;;-0.90;86.93
63554;BME280;49699;48.072;7.800;2023-02-13T00:16:59;101335.00;;;-0.93;87.15
63554;BME280;49699;48.072;7.800;2023-02-13T00:19:24;101329.81;;;-0.98;86.92
63554;BME280;49699;48.072;7.800;2023-02-13T00:21:49;101330.63;;;-0.99;87.28
63554;BME280;49699;48.072;7.800;2023-02-13T00:24:15;101334.00;;;-1.00;86.90
63554;BME280;49699;48.072;7.800;2023-02-13T00:26:40;101333.97;;;-1.01;87.07
63554;BME280;49699;48.072;7.800;2023-02-13T00:29:06;101338.19;;;-1.03;87.22
63554;BME280;49699;48.072;7.800;2023-02-13T00:31:31;101343.25;;;-1.07;87.14
63554;BME280;49699;48.072;7.800;2023-02-13T00:33:56;101341.47;;;-1.11;87.23
63554;BME280;49699;48.072;7.800;2023-02-13T00:36:21;101338.94;;;-1.11;87.04
63554;BME280;49699;48.072;7.800;2023-02-13T00:38:47;101333.78;;;-1.12;87.00
63554;BME280;49699;48.072;7.800;2023-02-13T00:41:12;101338.91;;;-1.12;87.55
63554;BME280;49699;48.072;7.800;2023-02-13T00:43:38;101338.06;;;-1.11;87.11
63554;BME280;49699;48.072;7.800;2023-02-13T00:46:03;101334.66;;;-1.12;87.28
63554;BME280;49699;48.072;7.800;2023-02-13T00:48:29;101338.91;;;-1.12;87.18
63554;BME280;49699;48.072;7.800;2023-02-13T00:50:55;101339.72;;;-1.13;86.80
63554;BME280;49699;48.072;7.800;2023-02-13T00:53:21;101341.38;;;-1.15;86.94
63554;BME280;49699;48.072;7.800;2023-02-13T00:55:46;101336.19;;;-1.20;86.97
63554;BME280;49699;48.072;7.800;2023-02-13T00:58:12;101338.69;;;-1.21;87.43
63554;BME280;49699;48.072;7.800;2023-02-13T01:00:37;101343.78;;;-1.23;87.27
63554;BME280;49699;48.072;7.800;2023-02-13T01:03:03;101344.56;;;-1.25;87.46
63554;BME280;49699;48.072;7.800;2023-02-13T01:05:29;101347.13;;;-1.27;87.56
63554;BME280;49699;48.072;7.800;2023-02-13T01:07:55;101351.41;;;-1.26;87.28
63554;BME280;49699;48.072;7.800;2023-02-13T01:10:20;101350.53;;;-1.25;87.35
63554;BME280;49699;48.072;7.800;2023-02-13T01:12:46;101353.09;;;-1.25;86.95
63554;BME280;49699;48.072;7.800;2023-02-13T01:15:12;101349.66;;;-1.25;86.96
63554;BME280;49699;48.072;7.800;2023-02-13T01:17:38;101347.94;;;-1.28;87.14
63554;BME280;49699;48.072;7.800;2023-02-13T01:20:06;101350.53;;;-1.26;87.26
63554;BME280;49699;48.072;7.800;2023-02-13T01:22:32;101348.84;;;-1.26;87.03
63554;BME280;49699;48.072;7.800;2023-02-13T01:24:57;101343.69;;;-1.27;87.09
63554;BME280;49699;48.072;7.800;2023-02-13T01:27:23;101343.66;;;-1.29;87.34
63554;BME280;49699;48.072;7.800;2023-02-13T01:29:49;101343.59;;;-1.32;87.26
63554;BME280;49699;48.072;7.800;2023-02-13T01:32:15;101347.81;;;-1.34;87.32
63554;BME280;49699;48.072;7.800;2023-02-13T01:34:41;101347.69;;;-1.38;87.05
63554;BME280;49699;48.072;7.800;2023-02-13T01:37:06;101351.13;;;-1.38;87.43
63554;BME280;49699;48.072;7.800;2023-02-13T01:39:31;101350.25;;;-1.38;87.56
63554;BME280;49699;48.072;7.800;2023-02-13T01:41:57;101345.13;;;-1.40;87.51
63554;BME280;49699;48.072;7.800;2023-02-13T01:47:07;101345.03;;;-1.43;87.28
63554;BME280;49699;48.072;7.800;2023-02-13T01:49:33;101339.94;;;-1.43;87.35
63554;BME280;49699;48.072;7.800;2023-02-13T01:51:58;101347.59;;;-1.43;87.61
63554;BME280;49699;48.072;7.800;2023-02-13T01:54:27;101344.19;;;-1.45;87.28
63554;BME280;49699;48.072;7.800;2023-02-13T01:57:00;101344.19;;;-1.45;87.06
63554;BME280;49699;48.072;7.800;2023-02-13T01:59:30;101341.59;;;-1.47;87.20
63554;BME280;49699;48.072;7.800;2023-02-13T02:01:57;101344.09;;;-1.48;87.15
63554;BME280;49699;48.072;7.800;2023-02-13T02:04:31;101335.53;;;-1.50;87.26
63554;BME280;49699;48.072;7.800;2023-02-13T02:06:58;101338.91;;;-1.51;87.24
63554;BME280;49699;48.072;7.800;2023-02-13T02:09:31;101334.56;;;-1.55;87.39
63554;BME280;49699;48.072;7.800;2023-02-13T02:11:58;101341.38;;;-1.56;87.31
63554;BME280;49699;48.072;7.800;2023-02-13T02:14:26;101327.66;;;-1.59;87.10
63554;BME280;49699;48.072;7.800;2023-02-13T02:16:53;101336.16;;;-1.60;87.30
63554;BME280;49699;48.072;7.800;2023-02-13T02:19:24;101328.50;;;-1.62;87.43
63554;BME280;49699;48.072;7.800;2023-02-13T02:29:56;101330.16;;;-1.64;87.13
63554;BME280;49699;48.072;7.800;2023-02-13T02:40:16;101313.94;;;-1.66;86.83
63554;BME280;49699;48.072;7.800;2023-02-13T02:47:54;101311.25;;;-1.70;87.05
63554;BME280;49699;48.072;7.800;2023-02-13T02:55:49;101323.19;;;-1.69;86.99
63554;BME280;49699;48.072;7.800;2023-02-13T02:58:18;101325.72;;;-1.71;86.73
63554;BME280;49699;48.072;7.800;2023-02-13T03:01:04;101326.50;;;-1.73;87.26
63554;BME280;49699;48.072;7.800;2023-02-13T03:03:49;101326.44;;;-1.77;87.02
63554;BME280;49699;48.072;7.800;2023-02-13T03:06:43;101325.56;;;-1.77;87.14
63554;BME280;49699;48.072;7.800;2023-02-13T03:09:11;101327.22;;;-1.79;86.77
63554;BME280;49699;48.072;7.800;2023-02-13T03:11:57;101322.94;;;-1.82;87.32
63554;BME280;49699;48.072;7.800;2023-02-13T03:14:41;101328.00;;;-1.83;86.81
63554;BME280;49699;48.072;7.800;2023-02-13T03:17:09;101333.91;;;-1.86;87.33
63554;BME280;49699;48.072;7.800;2023-02-13T03:22:45;101338.94;;;-1.89;87.32
63554;BME280;49699;48.072;7.800;2023-02-13T03:25:21;101344.06;;;-1.87;87.03
63554;BME280;49699;48.072;7.800;2023-02-13T03:28:09;101341.53;;;-1.87;87.14
63554;BME280;49699;48.072;7.800;2023-02-13T03:30:59;101345.75;;;-1.88;87.20
63554;BME280;49699;48.072;7.800;2023-02-13T03:33:43;101349.09;;;-1.90;86.84
63554;BME280;49699;48.072;7.800;2023-02-13T03:46:41;101351.28;;;-2.05;86.82
63554;BME280;49699;48.072;7.800;2023-02-13T03:49:10;101349.53;;;-2.08;87.21
63554;BME280;49699;48.072;7.800;2023-02-13T03:52:00;101352.00;;;-2.11;86.99
63554;BME280;49699;48.072;7.800;2023-02-13T03:57:17;101351.06;;;-2.16;87.14
63554;BME280;49699;48.072;7.800;2023-02-13T04:00:02;101362.94;;;-2.17;87.20
63554;BME280;49699;48.072;7.800;2023-02-13T04:02:41;101358.66;;;-2.18;87.32
63554;BME280;49699;48.072;7.800;2023-02-13T04:05:14;101360.34;;;-2.18;87.23
63554;BME280;49699;48.072;7.800;2023-02-13T04:07:40;101364.63;;;-2.17;87.16
63554;BME280;49699;48.072;7.800;2023-02-13T04:10:15;101361.25;;;-2.16;87.62
63554;BME280;49699;48.072;7.800;2023-02-13T04:12:56;101369.00;;;-2.12;87.09
63554;BME280;49699;48.072;7.800;2023-02-13T04:17:51;101370.69;;;-2.12;87.38
63554;BME280;49699;48.072;7.800;2023-02-13T04:20:18;101376.66;;;-2.12;87.14
63554;BME280;49699;48.072;7.800;2023-02-13T04:22:44;101375.00;;;-2.10;87.19
63554;BME280;49699;48.072;7.800;2023-02-13T04:25:11;101375.03;;;-2.08;87.35
63554;BME280;49699;48.072;7.800;2023-02-13T04:27:36;101369.16;;;-2.05;86.92
63554;BME280;49699;48.072;7.800;2023-02-13T04:30:02;101368.38;;;-2.03;87.21
63554;BME280;49699;48.072;7.800;2023-02-13T04:32:27;101365.81;;;-2.03;87.03
63554;BME280;49699;48.072;7.800;2023-02-13T04:34:53;101366.72;;;-2.01;87.21
63554;BME280;49699;48.072;7.800;2023-02-13T04:37:18;101370.13;;;-2.00;86.91
63554;BME280;49699;48.072;7.800;2023-02-13T04:39:43;101371.81;;;-2.01;86.85
63554;BME280;49699;48.072;7.800;2023-02-13T04:42:08;101367.50;;;-2.03;87.12
63554;BME280;49699;48.072;7.800;2023-02-13T04:44:34;101373.44;;;-2.04;87.21
63554;BME280;49699;48.072;7.800;2023-02-13T04:46:59;101368.25;;;-2.07;87.08
63554;BME280;49699;48.072;7.800;2023-02-13T04:49:24;101375.00;;;-2.10;86.92
63554;BME280;49699;48.072;7.800;2023-02-13T04:51:49;101381.72;;;-2.13;87.08
63554;BME280;49699;48.072;7.800;2023-02-13T04:54:15;101379.06;;;-2.18;87.09
63554;BME280;49699;48.072;7.800;2023-02-13T04:56:40;101376.50;;;-2.18;87.01
63554;BME280;49699;48.072;7.800;2023-02-13T04:59:05;101384.94;;;-2.20;87.27
63554;BME280;49699;48.072;7.800;2023-02-13T05:01:31;101383.25;;;-2.20;87.19
63554;BME280;49699;48.072;7.800;2023-02-13T05:03:56;101377.31;;;-2.20;87.34
63554;BME280;49699;48.072;7.800;2023-02-13T05:06:21;101384.09;;;-2.21;87.12
63554;BME280;49699;48.072;7.800;2023-02-13T05:08:47;101384.09;;;-2.21;87.17
63554;BME280;49699;48.072;7.800;2023-02-13T05:11:13;101389.28;;;-2.18;87.38
63554;BME280;49699;48.072;7.800;2023-02-13T05:13:38;101390.22;;;-2.13;87.29
63554;BME280;49699;48.072;7.800;2023-02-13T05:16:03;101385.28;;;-2.06;86.85
63554;BME280;49699;48.072;7.800;2023-02-13T05:18:29;101399.09;;;-1.98;86.68
63554;BME280;49699;48.072;7.800;2023-02-13T05:20:54;101395.84;;;-1.91;86.87
63554;BME280;49699;48.072;7.800;2023-02-13T05:23:38;101392.63;;;-1.84;86.91
63554;BME280;49699;48.072;7.800;2023-02-13T05:26:03;101387.66;;;-1.80;86.64
63554;BME280;49699;48.072;7.800;2023-02-13T05:28:28;101390.28;;;-1.75;86.94
63554;BME280;49699;48.072;7.800;2023-02-13T05:31:12;101384.47;;;-1.69;86.90
63554;BME280;49699;48.072;7.800;2023-02-13T05:33:37;101384.53;;;-1.66;86.97
63554;BME280;49699;48.072;7.800;2023-02-13T05:36:03;101393.97;;;-1.64;87.33
63554;BME280;49699;48.072;7.800;2023-02-13T05:38:28;101396.59;;;-1.59;87.41
63554;BME280;49699;48.072;7.800;2023-02-13T05:40:54;101400.13;;;-1.54;87.42
63554;BME280;49699;48.072;7.800;2023-02-13T05:43:19;101401.16;;;-1.48;87.59
63554;BME280;49699;48.072;7.800;2023-02-13T05:45:44;101402.94;;;-1.42;87.44
63554;BME280;49699;48.072;7.800;2023-02-13T05:48:10;101405.63;;;-1.37;87.15
63554;BME280;49699;48.072;7.800;2023-02-13T05:50:35;101404.91;;;-1.32;87.34
63554;BME280;49699;48.072;7.800;2023-02-13T05:53:01;101403.31;;;-1.27;87.33
63554;BME280;49699;48.072;7.800;2023-02-13T05:55:26;101402.56;;;-1.21;87.15
63554;BME280;49699;48.072;7.800;2023-02-13T05:57:54;101405.25;;;-1.15;87.31
63554;BME280;49699;48.072;7.800;2023-02-13T06:00:20;101412.19;;;-1.10;87.30
63554;BME280;49699;48.072;7.800;2023-02-13T06:02:45;101405.44;;;-1.06;87.26
63554;BME280;49699;48.072;7.800;2023-02-13T06:05:10;101408.94;;;-1.02;87.32
63554;BME280;49699;48.072;7.800;2023-02-13T06:07:36;101414.13;;;-0.98;87.23
63554;BME280;49699;48.072;7.800;2023-02-13T06:10:01;101415.94;;;-0.94;87.53
63554;BME280;49699;48.072;7.800;2023-02-13T06:12:26;101416.00;;;-0.89;87.51
63554;BME280;49699;48.072;7.800;2023-02-13T06:14:52;101410.97;;;-0.86;87.66
63554;BME280;49699;48.072;7.800;2023-02-13T06:17:17;101414.44;;;-0.83;87.60
63554;BME280;49699;48.072;7.800;2023-02-13T06:19:42;101419.66;;;-0.78;87.80
63554;BME280;49699;48.072;7.800;2023-02-13T06:22:07;101418.03;;;-0.75;87.92
63554;BME280;49699;48.072;7.800;2023-02-13T06:24:33;101426.59;;;-0.71;87.97
63554;BME280;49699;48.072;7.800;2023-02-13T06:26:58;101420.72;;;-0.67;87.72
63554;BME280;49699;48.072;7.800;2023-02-13T06:29:23;101425.06;;;-0.63;87.77
63554;BME280;49699;48.072;7.800;2023-02-13T06:31:48;101421.69;;;-0.62;88.30
63554;BME280;49699;48.072;7.800;2023-02-13T06:34:14;101420.84;;;-0.61;87.95
63554;BME280;49699;48.072;7.800;2023-02-13T06:36:39;101421.78;;;-0.57;88.44
63554;BME280;49699;48.072;7.800;2023-02-13T06:39:08;101415.84;;;-0.56;88.53
63554;BME280;49699;48.072;7.800;2023-02-13T06:41:33;101416.72;;;-0.54;88.65
63554;BME280;49699;48.072;7.800;2023-02-13T06:43:58;101412.47;;;-0.52;88.76
63554;BME280;49699;48.072;7.800;2023-02-13T06:46:23;101419.34;;;-0.50;88.68
63554;BME280;49699;48.072;7.800;2023-02-13T06:48:49;101416.81;;;-0.48;88.86
63554;BME280;49699;48.072;7.800;2023-02-13T06:51:14;101419.38;;;-0.48;88.85
63554;BME280;49699;48.072;7.800;2023-02-13T06:53:39;101421.97;;;-0.47;89.40
63554;BME280;49699;48.072;7.800;2023-02-13T06:56:05;101426.25;;;-0.46;89.27
63554;BME280;49699;48.072;7.800;2023-02-13T06:58:31;101431.47;;;-0.41;89.21
63554;BME280;49699;48.072;7.800;2023-02-13T07:00:56;101428.13;;;-0.37;89.05
63554;BME280;49699;48.072;7.800;2023-02-13T07:03:21;101423.91;;;-0.33;89.30
63554;BME280;49699;48.072;7.800;2023-02-13T07:05:47;101441.84;;;-0.32;89.32
63554;BME280;49699;48.072;7.800;2023-02-13T07:08:15;101429.97;;;-0.28;89.25
63554;BME280;49699;48.072;7.800;2023-02-13T07:10:41;101426.63;;;-0.26;89.35
63554;BME280;49699;48.072;7.800;2023-02-13T07:13:06;101431.00;;;-0.20;89.53
63554;BME280;49699;48.072;7.800;2023-02-13T07:15:32;101426.78;;;-0.18;89.29
63554;BME280;49699;48.072;7.800;2023-02-13T07:17:58;101427.66;;;-0.15;89.15
63554;BME280;49699;48.072;7.800;2023-02-13T07:20:23;101425.19;;;-0.10;89.29
63554;BME280;49699;48.072;7.800;2023-02-13T07:22:48;101428.66;;;-0.07;89.16
63554;BME280;49699;48.072;7.800;2023-02-13T07:25:14;101431.31;;;-0.02;89.42
63554;BME280;49699;48.072;7.800;2023-02-13T07:27:39;101436.47;;;0.01;89.32
63554;BME280;49699;48.072;7.800;2023-02-13T07:30:05;101436.59;;;0.07;89.43
63554;BME280;49699;48.072;7.800;2023-02-13T07:32:30;101444.25;;;0.07;89.39
63554;BME280;49699;48.072;7.800;2023-02-13T07:34:55;101436.59;;;0.09;89.63
63554;BME280;49699;48.072;7.800;2023-02-13T07:37:21;101442.59;;;0.09;89.53
63554;BME280;49699;48.072;7.800;2023-02-13T07:39:46;101446.03;;;0.11;89.80
63554;BME280;49699;48.072;7.800;2023-02-13T07:42:12;101454.59;;;0.12;89.40
63554;BME280;49699;48.072;7.800;2023-02-13T07:44:37;101452.03;;;0.12;89.54
63554;BME280;49699;48.072;7.800;2023-02-13T07:47:02;101446.91;;;0.12;90.03
63554;BME280;49699;48.072;7.800;2023-02-13T07:49:28;101447.78;;;0.14;90.22
63554;BME280;49699;48.072;7.800;2023-02-13T07:51:54;101448.63;;;0.13;90.19
63554;BME280;49699;48.072;7.800;2023-02-13T07:54:23;101452.97;;;0.17;90.07
63554;BME280;49699;48.072;7.800;2023-02-13T07:57:00;101457.25;;;0.19;90.41
63554;BME280;49699;48.072;7.800;2023-02-13T07:59:26;101458.19;;;0.23;90.32
63554;BME280;49699;48.072;7.800;2023-02-13T08:01:52;101464.22;;;0.26;90.36
63554;BME280;49699;48.072;7.800;2023-02-13T08:04:17;101460.88;;;0.30;90.11
63554;BME280;49699;48.072;7.800;2023-02-13T08:06:42;101458.34;;;0.32;90.21
63554;BME280;49699;48.072;7.800;2023-02-13T08:09:12;101456.69;;;0.34;90.26
63554;BME280;49699;48.072;7.800;2023-02-13T08:12:00;101458.44;;;0.40;90.23
63554;BME280;49699;48.072;7.800;2023-02-13T08:14:26;101457.66;;;0.44;89.85
63554;BME280;49699;48.072;7.800;2023-02-13T08:16:51;101453.44;;;0.46;90.05
63554;BME280;49699;48.072;7.800;2023-02-13T08:19:17;101458.59;;;0.47;90.05
63554;BME280;49699;48.072;7.800;2023-02-13T08:21:43;101456.88;;;0.48;89.89
63554;BME280;49699;48.072;7.800;2023-02-13T08:24:08;101456.97;;;0.52;89.78
63554;BME280;49699;48.072;7.800;2023-02-13T08:26:34;101459.66;;;0.61;89.82
63554;BME280;49699;48.072;7.800;2023-02-13T08:28:59;101452.06;;;0.67;89.74
63554;BME280;49699;48.072;7.800;2023-02-13T08:31:24;101456.38;;;0.70;89.52
63554;BME280;49699;48.072;7.800;2023-02-13T08:33:50;101462.34;;;0.72;89.37
63554;BME280;49699;48.072;7.800;2023-02-13T08:36:15;101466.66;;;0.72;89.41
63554;BME280;49699;48.072;7.800;2023-02-13T08:38:40;101465.78;;;0.73;89.46
63554;BME280;49699;48.072;7.800;2023-02-13T08:41:06;101462.47;;;0.78;89.38
63554;BME280;49699;48.072;7.800;2023-02-13T08:43:31;101463.53;;;0.94;89.23
63554;BME280;49699;48.072;7.800;2023-02-13T08:45:57;101457.78;;;1.12;88.85
63554;BME280;49699;48.072;7.800;2023-02-13T08:48:23;101453.81;;;1.35;88.37
63554;BME280;49699;48.072;7.800;2023-02-13T08:50:49;101453.94;;;1.47;87.47
63554;BME280;49699;48.072;7.800;2023-02-13T08:53:14;101453.19;;;1.54;87.24
63554;BME280;49699;48.072;7.800;2023-02-13T08:55:39;101458.41;;;1.63;86.73
63554;BME280;49699;48.072;7.800;2023-02-13T08:58:04;101456.84;;;1.76;86.81
63554;BME280;49699;48.072;7.800;2023-02-13T09:00:30;101453.53;;;1.86;86.45
63554;BME280;49699;48.072;7.800;2023-02-13T09:03:02;101451.06;;;1.98;85.85
63554;BME280;49699;48.072;7.800;2023-02-13T09:05:28;101450.38;;;2.13;85.75
63554;BME280;49699;48.072;7.800;2023-02-13T09:07:57;101449.66;;;2.34;85.05
63554;BME280;49699;48.072;7.800;2023-02-13T09:10:23;101452.44;;;2.60;84.18
63554;BME280;49699;48.072;7.800;2023-02-13T09:12:51;101448.34;;;2.86;83.36
63554;BME280;49699;48.072;7.800;2023-02-13T09:15:17;101451.00;;;3.07;81.96
63554;BME280;49699;48.072;7.800;2023-02-13T09:17:42;101447.66;;;3.25;81.46
63554;BME280;49699;48.072;7.800;2023-02-13T09:20:07;101444.28;;;3.43;80.89
63554;BME280;49699;48.072;7.800;2023-02-13T09:22:33;101439.19;;;3.60;80.03
63554;BME280;49699;48.072;7.800;2023-02-13T09:24:58;101438.38;;;3.80;79.43
63554;BME280;49699;48.072;7.800;2023-02-13T09:27:28;101440.16;;;4.10;78.46
63554;BME280;49699;48.072;7.800;2023-02-13T09:29:53;101435.84;;;4.34;77.74
63554;BME280;49699;48.072;7.800;2023-02-13T09:32:18;101442.72;;;4.59;76.94
63554;BME280;49699;48.072;7.800;2023-02-13T09:34:44;101441.81;;;4.81;76.30
63554;BME280;49699;48.072;7.800;2023-02-13T09:37:09;101438.34;;;4.93;75.43
63554;BME280;49699;48.072;7.800;2023-02-13T09:39:34;101428.84;;;5.06;75.41
63554;BME280;49699;48.072;7.800;2023-02-13T09:42:00;101427.91;;;5.25;74.75
63554;BME280;49699;48.072;7.800;2023-02-13T09:44:41;101428.69;;;5.44;74.34
63554;BME280;49699;48.072;7.800;2023-02-13T09:49:41;101425.84;;;5.88;72.91
63554;BME280;49699;48.072;7.800;2023-02-13T09:52:07;101423.19;;;6.05;72.53
63554;BME280;49699;48.072;7.800;2023-02-13T09:54:33;101423.06;;;6.18;72.16
63554;BME280;49699;48.072;7.800;2023-02-13T09:57:46;101412.69;;;6.26;71.72
63554;BME280;49699;48.072;7.800;2023-02-13T10:04:51;101414.75;;;6.79;70.38
63554;BME280;49699;48.072;7.800;2023-02-13T10:07:22;101411.03;;;7.00;69.83
63554;BME280;49699;48.072;7.800;2023-02-13T10:15:15;101407.88;;;7.47;68.42
63554;BME280;49699;48.072;7.800;2023-02-13T10:17:46;101400.81;;;7.57;68.31
63554;BME280;49699;48.072;7.800;2023-02-13T10:22:48;101401.03;;;7.42;68.43
63554;BME280;49699;48.072;7.800;2023-02-13T10:25:18;101398.59;;;7.31;69.22
63554;BME280;49699;48.072;7.800;2023-02-13T10:27:46;101390.91;;;7.23;69.69
63554;BME280;49699;48.072;7.800;2023-02-13T10:30:20;101398.59;;;7.32;69.48
63554;BME280;49699;48.072;7.800;2023-02-13T10:37:39;101397.03;;;7.81;68.48
63554;BME280;49699;48.072;7.800;2023-02-13T10:40:05;101390.81;;;7.91;68.20
63554;BME280;49699;48.072;7.800;2023-02-13T10:42:42;101395.81;;;8.05;67.39
63554;BME280;49699;48.072;7.800;2023-02-13T10:52:46;101381.31;;;8.42;66.14
63554;BME280;49699;48.072;7.800;2023-02-13T11:03:14;101372.63;;;8.45;66.18
63554;BME280;49699;48.072;7.800;2023-02-13T11:05:41;101366.63;;;8.43;66.43
63554;BME280;49699;48.072;7.800;2023-02-13T11:08:27;101367.41;;;8.48;66.37
63554;BME280;49699;48.072;7.800;2023-02-13T11:10:54;101359.53;;;8.52;66.14
63554;BME280;49699;48.072;7.800;2023-02-13T11:13:20;101360.22;;;8.60;65.70
63554;BME280;49699;48.072;7.800;2023-02-13T11:15:59;101359.28;;;8.64;66.42
63554;BME280;49699;48.072;7.800;2023-02-13T11:18:26;101350.53;;;8.70;66.00
63554;BME280;49699;48.072;7.800;2023-02-13T11:21:00;101345.25;;;8.76;65.71
63554;BME280;49699;48.072;7.800;2023-02-13T11:25:56;101352.56;;;8.97;65.42
63554;BME280;49699;48.072;7.800;2023-02-13T11:28:22;101349.13;;;8.97;65.06
63554;BME280;49699;48.072;7.800;2023-02-13T11:30:47;101350.16;;;8.90;65.67
63554;BME280;49699;48.072;7.800;2023-02-13T11:35:41;101344.78;;;8.97;65.82
63554;BME280;49699;48.072;7.800;2023-02-13T11:40:43;101339.75;;;8.90;65.36
63554;BME280;49699;48.072;7.800;2023-02-13T11:45:46;101344.25;;;8.82;65.30
63554;BME280;49699;48.072;7.800;2023-02-13T11:48:19;101341.66;;;8.80;65.58
63554;BME280;49699;48.072;7.800;2023-02-13T11:50:44;101334.03;;;8.74;65.12
63554;BME280;49699;48.072;7.800;2023-02-13T11:53:18;101332.31;;;8.73;65.35
63554;BME280;49699;48.072;7.800;2023-02-13T11:55:45;101330.75;;;8.64;65.97
63554;BME280;49699;48.072;7.800;2023-02-13T11:58:24;101333.22;;;8.70;65.68
63554;BME280;49699;48.072;7.800;2023-02-13T12:00:53;101331.47;;;8.73;65.51
63554;BME280;49699;48.072;7.800;2023-02-13T12:03:30;101327.06;;;8.76;65.42
63554;BME280;49699;48.072;7.800;2023-02-13T12:08:24;101326.06;;;8.82;65.52
63554;BME280;49699;48.072;7.800;2023-02-13T12:10:50;101325.84;;;8.94;65.16
63554;BME280;49699;48.072;7.800;2023-02-13T12:13:34;101321.38;;;8.99;65.22
63554;BME280;49699;48.072;7.800;2023-02-13T12:16:06;101324.69;;;9.07;65.12
63554;BME280;49699;48.072;7.800;2023-02-13T12:18:35;101319.53;;;9.05;65.36
63554;BME280;49699;48.072;7.800;2023-02-13T12:21:14;101317.91;;;9.00;65.75
63554;BME280;49699;48.072;7.800;2023-02-13T12:29:09;101314.69;;;8.89;67.04
63554;BME280;49699;48.072;7.800;2023-02-13T12:31:39;101313.81;;;8.88;67.29
63554;BME280;49699;48.072;7.800;2023-02-13T12:41:48;101318.31;;;8.80;67.47
63554;BME280;49699;48.072;7.800;2023-02-13T12:46:59;101314.50;;;8.55;68.39
63554;BME280;49699;48.072;7.800;2023-02-13T12:59:40;101315.22;;;8.15;68.90
63554;BME280;49699;48.072;7.800;2023-02-13T13:07:26;101309.66;;;7.87;69.81
63554;BME280;49699;48.072;7.800;2023-02-13T13:12:25;101305.34;;;7.86;69.56
63554;BME280;49699;48.072;7.800;2023-02-13T13:14:53;101297.69;;;7.79;70.36
63554;BME280;49699;48.072;7.800;2023-02-13T13:22:51;101306.44;;;7.72;70.85
63554;BME280;49699;48.072;7.800;2023-02-13T13:25:27;101303.00;;;7.71;70.76
63554;BME280;49699;48.072;7.800;2023-02-13T13:27:58;101296.84;;;7.78;70.99
63554;BME280;49699;48.072;7.800;2023-02-13T13:30:26;101299.38;;;7.81;70.82
63554;BME280;49699;48.072;7.800;2023-02-13T13:33:03;101292.56;;;7.76;70.59
63554;BME280;49699;48.072;7.800;2023-02-13T13:35:30;101302.91;;;7.76;70.61
63554;BME280;49699;48.072;7.800;2023-02-13T13:38:02;101290.84;;;7.73;70.80
63554;BME280;49699;48.072;7.800;2023-02-13T13:40:39;101295.34;;;7.63;70.79
63554;BME280;49699;48.072;7.800;2023-02-13T13:51:19;101294.91;;;7.36;71.69
63554;BME280;49699;48.072;7.800;2023-02-13T13:56:25;101295.00;;;7.31;71.95
63554;BME280;49699;48.072;7.800;2023-02-13T13:58:51;101289.84;;;7.29;72.19
63554;BME280;49699;48.072;7.800;2023-02-13T14:03:45;101288.16;;;7.25;72.04
63554;BME280;49699;48.072;7.800;2023-02-13T14:06:14;101287.28;;;7.26;71.80
63554;BME280;49699;48.072;7.800;2023-02-13T14:11:47;101286.22;;;7.38;72.16
63554;BME280;49699;48.072;7.800;2023-02-13T14:13:54;101288.69;;;7.47;71.58
63554;BME280;49699;48.072;7.800;2023-02-13T14:19:03;101286.75;;;7.61;71.32
63554;BME280;49699;48.072;7.800;2023-02-13T14:21:29;101280.75;;;7.58;71.28
63554;BME280;49699;48.072;7.800;2023-02-13T14:23:54;101273.09;;;7.52;71.09
63554;BME280;49699;48.072;7.800;2023-02-13T14:26:33;101276.59;;;7.49;71.33
63554;BME280;49699;48.072;7.800;2023-02-13T14:31:35;101274.25;;;7.32;71.20
63554;BME280;49699;48.072;7.800;2023-02-13T14:34:07;101282.16;;;7.23;71.78
63554;BME280;49699;48.072;7.800;2023-02-13T14:36:41;101272.78;;;7.16;72.06
63554;BME280;49699;48.072;7.800;2023-02-13T14:46:45;101276.06;;;7.26;72.05
63554;BME280;49699;48.072;7.800;2023-02-13T14:49:13;101279.50;;;7.26;72.08
63554;BME280;49699;48.072;7.800;2023-02-13T14:51:44;101274.44;;;7.17;72.21
63554;BME280;49699;48.072;7.800;2023-02-13T14:56:36;101271.31;;;6.99;73.12
63554;BME280;49699;48.072;7.800;2023-02-13T15:01:28;101267.91;;;6.93;73.49
63554;BME280;49699;48.072;7.800;2023-02-13T15:03:58;101263.47;;;7.00;73.12
63554;BME280;49699;48.072;7.800;2023-02-13T15:06:28;101270.34;;;7.03;72.83
63554;BME280;49699;48.072;7.800;2023-02-13T15:08:55;101272.94;;;7.03;73.17
63554;BME280;49699;48.072;7.800;2023-02-13T15:11:31;101269.50;;;7.02;72.81
63554;BME280;49699;48.072;7.800;2023-02-13T15:16:40;101263.38;;;7.08;72.36
63554;BME280;49699;48.072;7.800;2023-02-13T15:19:10;101265.13;;;7.07;72.50
63554;BME280;49699;48.072;7.800;2023-02-13T15:21:37;101263.38;;;7.08;72.58
63554;BME280;49699;48.072;7.800;2023-02-13T15:24:02;101271.13;;;7.11;72.52
63554;BME280;49699;48.072;7.800;2023-02-13T15:26:27;101267.63;;;7.13;72.39
63554;BME280;49699;48.072;7.800;2023-02-13T15:29:00;101268.63;;;7.03;72.46
63554;BME280;49699;48.072;7.800;2023-02-13T15:31:28;101264.56;;;6.85;72.84
63554;BME280;49699;48.072;7.800;2023-02-13T15:33:55;101255.25;;;6.71;73.28
63554;BME280;49699;48.072;7.800;2023-02-13T15:36:23;101259.81;;;6.50;73.94
63554;BME280;49699;48.072;7.800;2023-02-13T15:38:59;101258.31;;;6.33;74.82
63554;BME280;49699;48.072;7.800;2023-02-13T15:41:26;101265.34;;;6.18;75.66
63554;BME280;49699;48.072;7.800;2023-02-13T15:43:56;101256.88;;;6.07;76.03
63554;BME280;49699;48.072;7.800;2023-02-13T15:46:34;101262.13;;;5.98;76.49
63554;BME280;49699;48.072;7.800;2023-02-13T15:49:06;101261.34;;;5.85;76.85
63554;BME280;49699;48.072;7.800;2023-02-13T15:51:32;101262.34;;;5.71;77.23